Data for 10/12/2015

Time Sea-Level Adjusted Pressure Absolute Pressure Temperature Relative Humidity Dew Point   
(mb) (inHg) (mb) (inHg) (C) (F) (%) (C) (F)
00:05 1024 30.24 853 25.19 4.6 40.3 42 -7.3 18.9
00:10 1024 30.24 853 25.19 4.3 39.8 42 -7.4 18.6
00:15 1024 30.24 853 25.19 4.3 39.7 43 -7.2 19.1
00:20 1024 30.24 853 25.19 4.6 40.3 40 -7.8 17.9
00:25 1024 30.24 853 25.19 5 40.9 39 -7.9 17.8
00:30 1024 30.24 853 25.19 5.1 41.1 38 -8 17.7
00:35 1024 30.24 853 25.19 4.9 40.8 40 -7.7 18.1
00:40 1024 30.24 853 25.19 4.7 40.5 40 -7.8 18
00:45 1024 30.24 853 25.19 4.6 40.2 40 -7.7 18.1
00:50 1024 30.24 853 25.19 4.6 40.3 40 -8 17.6
00:55 1024 30.24 853 25.19 4.3 39.7 45 -6.6 20.1
01:00 1024 30.24 853 25.19 3.3 38 46 -7.1 19.3
01:05 1024 30.24 853 25.19 3.3 38 46 -7.3 18.8
01:10 1024 30.24 853 25.19 3.4 38.1 46 -7.2 19
01:15 1024 30.24 853 25.19 3.3 37.9 46 -7.4 18.7
01:20 1024 30.24 853 25.19 3.4 38.1 44 -7.7 18.2
01:25 1024 30.24 853 25.19 3.7 38.6 43 -7.9 17.8
01:30 1024 30.24 853 25.19 3.9 39.1 40 -8.3 17
01:35 1024 30.24 853 25.19 4.3 39.7 39 -8.5 16.7
01:40 1024 30.24 853 25.19 4.5 40.1 38 -8.8 16.2
01:45 1024 30.24 853 25.19 4.6 40.3 39 -8.2 17.3
01:50 1024 30.24 853 25.19 4.3 39.7 40 -8.1 17.4
01:55 1024 30.24 853 25.19 4 39.2 41 -8 17.6
02:00 1024 30.24 853 25.19 3.9 39 42 -7.9 17.8
02:05 1024 30.24 853 25.19 3.7 38.6 43 -7.7 18.1
02:10 1024 30.24 853 25.19 3.5 38.3 43 -7.8 18
02:15 1024 30.24 853 25.19 3.3 37.9 44 -7.8 17.9
02:20 1024 30.24 853 25.19 3.4 38.2 42 -8.3 17.1
02:25 1024 30.24 853 25.19 3.7 38.7 41 -8.4 16.9
02:30 1024 30.24 853 25.19 3.8 38.8 40 -8.7 16.4
02:35 1024 30.24 853 25.19 4 39.1 39 -8.9 15.9
02:40 1024 30.24 853 25.19 4 39.2 39 -8.7 16.3
02:45 1023 30.21 853 25.19 3.8 38.8 41 -8.4 16.9
02:50 1023 30.21 853 25.19 3.6 38.4 42 -8.3 17.1
02:55 1023 30.21 852 25.16 3.5 38.3 41 -8.5 16.7
03:00 1023 30.21 852 25.16 3.5 38.3 42 -8.3 17.1
03:05 1023 30.21 852 25.16 3.6 38.5 39 -9.2 15.4
03:10 1023 30.21 852 25.16 4.1 39.4 38 -9.1 15.6
03:15 1023 30.21 852 25.16 4.1 39.4 39 -8.6 16.6
03:20 1023 30.21 852 25.16 3.8 38.9 39 -8.9 16
03:25 1023 30.21 852 25.16 3.9 39 40 -8.6 16.4
03:30 1023 30.21 852 25.16 4 39.3 39 -8.7 16.4
03:35 1023 30.21 852 25.16 3.7 38.7 41 -8.2 17.2
03:40 1023 30.21 852 25.16 3.5 38.3 42 -8.2 17.2
03:45 1023 30.21 852 25.16 3.2 37.8 43 -8.1 17.4
03:50 1023 30.21 852 25.16 3.2 37.8 43 -8.2 17.2
03:55 1023 30.21 852 25.16 3.2 37.8 43 -8 17.5
04:00 1023 30.21 852 25.16 3.2 37.7 43 -8.3 17.1
04:05 1023 30.21 852 25.16 3.1 37.7 43 -8.3 17
04:10 1023 30.21 852 25.16 3.3 37.9 42 -8.5 16.7
04:15 1023 30.21 852 25.16 3.4 38.1 41 -8.7 16.4
04:20 1023 30.21 853 25.19 3.4 38.1 41 -8.7 16.4
04:25 1023 30.21 853 25.19 3.6 38.4 40 -8.9 16
04:30 1023 30.21 853 25.19 3.7 38.7 39 -9 15.8
04:35 1023 30.21 853 25.19 3.8 38.9 39 -8.8 16.2
04:40 1023 30.21 853 25.19 3.8 38.8 39 -8.9 16
04:45 1023 30.21 853 25.19 4.1 39.3 38 -9 15.7
04:50 1023 30.21 853 25.19 4.1 39.4 39 -8.7 16.3
04:55 1023 30.21 853 25.19 4 39.1 39 -8.6 16.5
05:00 1023 30.21 853 25.19 4 39.1 37 -9.5 14.9
05:05 1024 30.24 853 25.19 4.5 40.2 36 -9.2 15.4
05:10 1024 30.24 853 25.19 4.5 40 38 -8.7 16.3
05:15 1024 30.24 853 25.19 4.4 40 38 -8.7 16.3
05:20 1024 30.24 853 25.19 4.1 39.3 40 -8.3 17.1
05:25 1024 30.24 853 25.19 3.8 38.9 41 -8.4 16.9
05:30 1024 30.24 853 25.19 3.6 38.6 39 -8.9 16
05:35 1023 30.21 852 25.16 3.7 38.6 41 -8.2 17.2
05:40 1023 30.21 852 25.16 3.3 38 44 -7.8 18
05:45 1023 30.21 852 25.16 3.6 38.4 40 -8.7 16.4
05:50 1023 30.21 852 25.16 3.8 38.8 42 -8 17.5
05:55 1023 30.21 852 25.16 3.6 38.6 43 -7.9 17.8
06:00 1023 30.21 852 25.16 3.8 38.8 43 -7.7 18.2
06:05 1023 30.21 852 25.16 3.6 38.5 47 -6.8 19.8
06:10 1023 30.21 852 25.16 3.2 37.7 44 -8.1 17.4
06:15 1023 30.21 852 25.16 3.6 38.6 43 -7.9 17.8
06:20 1023 30.21 852 25.16 3.7 38.6 42 -8.2 17.3
06:25 1023 30.21 852 25.16 3.5 38.3 42 -8.1 17.5
06:30 1023 30.21 852 25.16 3.6 38.5 42 -8.2 17.3
06:35 1023 30.21 852 25.16 3.9 39 38 -9.2 15.5
06:40 1023 30.21 852 25.16 4.3 39.8 39 -8.3 17.1
06:45 1022 30.18 852 25.16 4.3 39.7 40 -8.1 17.4
06:50 1022 30.18 852 25.16 4.8 40.7 38 -8.2 17.2
06:55 1022 30.18 852 25.16 5.3 41.5 39 -7.5 18.6
07:00 1023 30.21 852 25.16 5.1 41.2 41 -7.3 18.9
07:05 1023 30.21 852 25.16 4.3 39.7 41 -7.9 17.8
07:10 1023 30.21 852 25.16 4.6 40.4 39 -8.3 17.1
07:15 1023 30.21 852 25.16 5.4 41.6 38 -7.9 17.7
07:20 1023 30.21 852 25.16 5.5 41.9 39 -7.4 18.7
07:25 1023 30.21 852 25.16 5.3 41.6 38 -7.7 18.1
07:30 1023 30.21 852 25.16 5.5 42 36 -8.2 17.2
07:35 1023 30.21 852 25.16 5.6 42.1 36 -8.3 17.1
07:40 1023 30.21 852 25.16 5.9 42.6 37 -7.9 17.9
07:45 1023 30.21 852 25.16 5.7 42.3 42 -6.2 20.9
07:50 1023 30.21 852 25.16 5.4 41.8 41 -6.6 20
07:55 1023 30.21 852 25.16 5.4 41.8 44 -6 21.2
08:00 1023 30.21 852 25.16 5.8 42.4 40 -6.8 19.7
08:05 1023 30.21 852 25.16 6.3 43.3 38 -6.9 19.6
08:10 1023 30.21 852 25.16 6.9 44.5 36 -7.1 19.3
08:15 1023 30.21 852 25.16 7.8 46.1 34 -7.2 19.1
08:20 1023 30.21 852 25.16 8.2 46.8 34 -6.7 19.9
08:25 1023 30.21 852 25.16 8.9 48.1 33 -6.4 20.4
08:30 1023 30.21 852 25.16 9.6 49.4 30 -6.9 19.6
08:35 1023 30.21 852 25.16 9.8 49.6 29 -7.2 19
08:40 1023 30.21 853 25.19 10.5 50.9 28 -7.4 18.7
08:45 1023 30.21 853 25.19 10.5 50.9 29 -6.8 19.8
08:50 1023 30.21 853 25.19 10.5 50.9 30 -6.5 20.4
08:55 1023 30.21 853 25.19 10.6 51 29 -6.8 19.8
09:00 1023 30.21 853 25.19 10.1 50.1 30 -6.6 20.1
09:05 1023 30.21 853 25.19 9.5 49.1 31 -6.8 19.8
09:10 1023 30.21 853 25.19 9.8 49.7 30 -6.9 19.5
09:15 1023 30.21 853 25.19 10.1 50.2 28 -7.5 18.5
09:20 1023 30.21 853 25.19 10.4 50.7 28 -7.2 19.1
09:25 1023 30.21 852 25.16 10.7 51.2 27 -7.5 18.6
09:30 1023 30.21 852 25.16 10.7 51.2 26 -7.8 17.9
09:35 1023 30.21 852 25.16 10.6 51 27 -7.5 18.5
09:40 1023 30.21 852 25.16 10.6 51.1 28 -7.3 18.8
09:45 1023 30.21 852 25.16 10.9 51.7 27 -7.2 19
09:50 1023 30.21 852 25.16 11 51.7 26 -8 17.6
09:55 1023 30.21 852 25.16 11.9 53.3 24 -8.1 17.3
10:00 1023 30.21 852 25.16 13.5 56.3 20 -9.1 15.7
10:05 1023 30.21 852 25.16 13.7 56.7 21 -8.5 16.8
10:10 1023 30.21 852 25.16 14.3 57.7 20 -8.3 17.1
10:15 1023 30.21 852 25.16 14.5 58.1 20 -8.3 17.1
10:20 1023 30.21 852 25.16 14.3 57.7 20 -8.5 16.8
10:25 1023 30.21 852 25.16 14.4 58 21 -7.9 17.8
10:30 1023 30.21 852 25.16 14.4 57.9 21 -7.7 18.2
10:35 1023 30.21 852 25.16 14.8 58.7 20 -8.1 17.3
10:40 1022 30.18 852 25.16 14.7 58.5 19 -8.4 16.8
10:45 1022 30.18 852 25.16 15.1 59.3 19 -8.3 17.1
10:50 1022 30.18 851 25.13 15.7 60.2 19 -8 17.5
10:55 1022 30.18 851 25.13 15.6 60 19 -8.2 17.2
11:00 1022 30.18 851 25.13 16.2 61.1 18 -8.4 16.8
11:05 1022 30.18 851 25.13 16.5 61.8 17 -8.2 17.3
11:10 1022 30.18 851 25.13 17.1 62.7 18 -7.7 18.2
11:15 1022 30.18 851 25.13 17.6 63.6 17 -7.7 18.1
11:20 1022 30.18 851 25.13 17.7 63.8 17 -7.6 18.2
11:25 1022 30.18 851 25.13 17.8 64 17 -7.3 18.8
11:30 1022 30.18 851 25.13 17.7 63.9 17 -7.4 18.7
11:35 1022 30.18 851 25.13 18.3 64.9 17 -7 19.4
11:40 1022 30.18 851 25.13 18.1 64.6 18 -6.7 19.9
11:45 1022 30.18 851 25.13 17.9 64.2 19 -5.7 21.7
11:50 1022 30.18 851 25.13 18 64.3 19 -6 21.1
11:55 1022 30.18 851 25.13 17.4 63.3 19 -6.1 21
12:00 1022 30.18 851 25.13 18.2 64.7 18 -6.2 20.8
12:05 1021 30.15 851 25.13 18.4 65.1 18 -5.9 21.3
12:10 1021 30.15 850 25.1 17.6 63.7 19 -6.1 21.1
12:15 1021 30.15 850 25.1 17.6 63.6 20 -5.8 21.5
12:20 1021 30.15 851 25.13 18.1 64.5 20 -5.4 22.3
12:25 1021 30.15 850 25.1 19.1 66.3 19 -5.1 22.7
12:30 1021 30.15 850 25.1 19.4 66.9 18 -5.7 21.7
12:35 1021 30.15 850 25.1 19.4 67 18 -5.1 22.9
12:40 1021 30.15 850 25.1 19.6 67.3 19 -4.8 23.3
12:45 1021 30.15 850 25.1 19.5 67.2 18 -5.6 21.9
12:50 1021 30.15 850 25.1 20.2 68.4 17 -5.8 21.5
12:55 1021 30.15 850 25.1 20.5 68.8 17 -5.1 22.8
13:00 1021 30.15 850 25.1 21 69.8 16 -5.9 21.3
13:05 1021 30.15 850 25.1 21.5 70.7 15 -6.3 20.6
13:10 1021 30.15 850 25.1 21.1 70 15 -6 21.2
13:15 1021 30.15 850 25.1 21.3 70.4 15 -6 21.1
13:20 1021 30.15 850 25.1 21.6 70.8 15 -6.4 20.6
13:25 1021 30.15 850 25.1 21.4 70.6 15 -6.3 20.7
13:30 1020 30.12 850 25.1 21.6 70.9 15 -5.8 21.5
13:35 1020 30.12 850 25.1 21.5 70.8 15 -6.3 20.7
13:40 1020 30.12 850 25.1 21.3 70.3 15 -6.2 20.8
13:45 1020 30.12 850 25.1 21 69.8 15 -6.3 20.7
13:50 1020 30.12 850 25.1 20.5 68.8 15 -6.6 20.1
13:55 1020 30.12 850 25.1 20.7 69.3 15 -6.6 20.1
14:00 1020 30.12 849 25.07 20.9 69.6 15 -6.7 20
14:05 1020 30.12 849 25.07 21.8 71.2 15 -5.6 22
14:10 1020 30.12 849 25.07 21.5 70.8 15 -6 21.3
14:15 1020 30.12 849 25.07 22.1 71.7 15 -5.3 22.5
14:20 1020 30.12 849 25.07 21.8 71.2 15 -5.7 21.7
14:25 1020 30.12 849 25.07 21.4 70.5 15 -6.1 21
14:30 1020 30.12 849 25.07 21.4 70.5 16 -5.7 21.7
14:35 1020 30.12 849 25.07 21 69.9 15 -6.1 21.1
14:40 1020 30.12 849 25.07 21.1 70 15 -6.1 21
14:45 1020 30.12 849 25.07 21.5 70.7 15 -6.1 21
14:50 1020 30.12 849 25.07 21.8 71.3 15 -5.8 21.5
14:55 1020 30.12 849 25.07 21.7 71 16 -5.4 22.3
15:00 1020 30.12 849 25.07 21.4 70.4 17 -4.3 24.2
15:05 1020 30.12 849 25.07 21.2 70.1 17 -4.5 23.9
15:10 1020 30.12 849 25.07 21.5 70.7 15 -5.8 21.5
15:15 1019 30.09 849 25.07 22.6 72.7 14 -5.8 21.5
15:20 1019 30.09 849 25.07 22.5 72.4 15 -5.5 22.1
15:25 1019 30.09 849 25.07 23 73.4 14 -5.8 21.6
15:30 1019 30.09 849 25.07 23.5 74.2 14 -5.2 22.7
15:35 1019 30.09 849 25.07 23.5 74.3 14 -5.2 22.7
15:40 1019 30.09 849 25.07 23.7 74.7 14 -5.3 22.4
15:45 1019 30.09 849 25.07 23.9 74.9 14 -5.3 22.5
15:50 1019 30.09 849 25.07 23.8 74.9 14 -4.9 23.2
15:55 1019 30.09 848 25.04 23.6 74.5 14 -4.9 23.1
16:00 1019 30.09 848 25.04 23.6 74.5 15 -4.6 23.7
16:05 1019 30.09 848 25.04 23.7 74.6 14 -5.4 22.3
16:10 1019 30.09 848 25.04 23.5 74.2 14 -5.3 22.4
16:15 1019 30.09 848 25.04 23.5 74.4 14 -4.9 23.2
16:20 1019 30.09 848 25.04 23.6 74.5 14 -4.9 23.2
16:25 1019 30.09 848 25.04 23.7 74.6 14 -4.8 23.4
16:30 1019 30.09 848 25.04 23.5 74.3 15 -4.5 24
16:35 1019 30.09 848 25.04 23.3 73.9 15 -4.9 23.2
16:40 1019 30.09 848 25.04 23.2 73.8 15 -4.5 23.9
16:45 1019 30.09 848 25.04 23.2 73.7 15 -4.5 23.8
16:50 1019 30.09 848 25.04 23.1 73.6 16 -4.3 24.3
16:55 1019 30.09 848 25.04 22.9 73.2 17 -3.3 26.1
17:00 1019 30.09 848 25.04 22.7 72.9 16 -4 24.8
17:05 1019 30.09 848 25.04 22.5 72.5 18 -3 26.5
17:10 1019 30.09 848 25.04 21.8 71.2 19 -2.9 26.8
17:15 1019 30.09 848 25.04 21.4 70.6 18 -3.8 25.1
17:20 1019 30.09 848 25.04 21.6 70.9 18 -3.7 25.3
17:25 1019 30.09 848 25.04 21.7 71.1 18 -3.5 25.7
17:30 1019 30.09 848 25.04 21.4 70.5 18 -3.8 25.2
17:35 1019 30.09 848 25.04 21 69.8 17 -4.5 23.9
17:40 1019 30.09 848 25.04 20.8 69.4 20 -2.8 27
17:45 1019 30.09 848 25.04 20.4 68.8 20 -3.4 25.8
17:50 1019 30.09 848 25.04 19.9 67.9 22 -2.6 27.4
17:55 1019 30.09 848 25.04 19.4 67 21 -3.5 25.7
18:00 1019 30.09 848 25.04 19.4 66.9 20 -3.9 25
18:05 1019 30.09 848 25.04 19.3 66.8 20 -4.4 24.2
18:10 1019 30.09 848 25.04 19.5 67.1 19 -4.3 24.3
18:15 1019 30.09 849 25.07 19.7 67.4 19 -4.6 23.7
18:20 1019 30.09 849 25.07 19.5 67 20 -3.9 24.9
18:25 1019 30.09 849 25.07 19.2 66.6 20 -4.2 24.5
18:30 1020 30.12 849 25.07 19.3 66.7 19 -4.5 23.8
18:35 1020 30.12 849 25.07 19.1 66.3 19 -4.9 23.1
18:40 1020 30.12 849 25.07 19.1 66.3 19 -4.8 23.3
18:45 1020 30.12 849 25.07 19.2 66.5 18 -5.3 22.5
18:50 1020 30.12 849 25.07 19.3 66.7 19 -5.1 22.8
18:55 1020 30.12 849 25.07 19 66.1 19 -5 23
19:00 1020 30.12 849 25.07 18.7 65.6 19 -5.4 22.3
19:05 1020 30.12 849 25.07 18.6 65.5 19 -5 23
19:10 1020 30.12 849 25.07 18.4 65.2 19 -5.2 22.6
19:15 1020 30.12 849 25.07 18.4 65 20 -5.1 22.8
19:20 1020 30.12 849 25.07 18.1 64.6 20 -5.1 22.8
19:25 1020 30.12 849 25.07 17.9 64.2 20 -5.1 22.8
19:30 1020 30.12 849 25.07 17.8 64.1 20 -5.4 22.3
19:35 1020 30.12 849 25.07 17.8 64 20 -5.5 22.1
19:40 1020 30.12 849 25.07 17.9 64.2 19 -5.7 21.8
19:45 1020 30.12 849 25.07 17.8 64.1 19 -5.9 21.5
19:50 1020 30.12 849 25.07 17.6 63.7 21 -4.8 23.3
19:55 1020 30.12 849 25.07 17 62.7 22 -4.8 23.3
20:00 1020 30.12 849 25.07 16.8 62.2 22 -4.9 23.2
20:05 1020 30.12 849 25.07 16.6 61.9 22 -5.1 22.8
20:10 1020 30.12 849 25.07 16.6 62 22 -5.2 22.7
20:15 1020 30.12 849 25.07 17 62.6 21 -5.4 22.4
20:20 1020 30.12 850 25.1 16.9 62.4 22 -5.1 22.9
20:25 1020 30.12 850 25.1 16.8 62.2 22 -5 23
20:30 1020 30.12 850 25.1 16.3 61.3 23 -4.6 23.7
20:35 1020 30.12 850 25.1 16 60.8 23 -5 23.1
20:40 1020 30.12 850 25.1 16 60.7 23 -4.9 23.2
20:45 1021 30.15 850 25.1 15.7 60.3 25 -4.2 24.5
20:50 1021 30.15 850 25.1 15 59.1 26 -4.3 24.2
20:55 1021 30.15 850 25.1 14.7 58.5 27 -4.1 24.6
21:00 1021 30.15 850 25.1 14.4 57.8 26 -4.6 23.7
21:05 1021 30.15 850 25.1 14.4 57.9 26 -4.8 23.4
21:10 1021 30.15 850 25.1 14.6 58.4 26 -4.7 23.5
21:15 1021 30.15 850 25.1 14.6 58.4 26 -4.7 23.5
21:20 1021 30.15 850 25.1 14.5 58.1 26 -4.7 23.6
21:25 1021 30.15 850 25.1 14.4 57.9 26 -4.7 23.5
21:30 1021 30.15 850 25.1 14.3 57.7 26 -5 23
21:35 1021 30.15 850 25.1 14.3 57.8 26 -5 23
21:40 1021 30.15 850 25.1 14.5 58.1 24 -5.6 22
21:45 1021 30.15 850 25.1 14.8 58.6 23 -5.9 21.4
21:50 1021 30.15 850 25.1 15.2 59.3 22 -6.3 20.7
21:55 1021 30.15 850 25.1 15.5 60 22 -6.2 20.9
22:00 1021 30.15 850 25.1 15.7 60.2 22 -6 21.2
22:05 1021 30.15 850 25.1 15.6 60.1 22 -5.8 21.5
22:10 1021 30.15 850 25.1 15.3 59.6 23 -5.7 21.8
22:15 1021 30.15 850 25.1 15 59.1 23 -5.7 21.8
22:20 1021 30.15 850 25.1 15.1 59.3 22 -6.3 20.7
22:25 1021 30.15 851 25.13 15.4 59.6 23 -5.8 21.5
22:30 1021 30.15 851 25.13 15.2 59.3 23 -5.7 21.7
22:35 1021 30.15 851 25.13 15 59 24 -5.4 22.3
22:40 1022 30.18 851 25.13 14.9 58.7 24 -5.3 22.5
22:45 1022 30.18 851 25.13 14.6 58.2 24 -5.6 21.8
22:50 1022 30.18 851 25.13 14.6 58.2 24 -5.8 21.5
22:55 1022 30.18 851 25.13 14.9 58.8 23 -6 21.3
23:00 1022 30.18 851 25.13 15.1 59.2 23 -6 21.2
23:05 1022 30.18 851 25.13 15.3 59.5 23 -5.9 21.5
23:10 1022 30.18 851 25.13 15.2 59.4 23 -5.7 21.8
23:15 1022 30.18 851 25.13 14.9 58.9 24 -5.5 22.1
23:20 1022 30.18 851 25.13 14.8 58.6 24 -5.7 21.7
23:25 1022 30.18 851 25.13 14.7 58.5 24 -5.8 21.6
23:30 1022 30.18 851 25.13 14.7 58.5 23 -6 21.2
23:35 1022 30.18 851 25.13 14.7 58.5 24 -5.7 21.7
23:40 1022 30.18 851 25.13 14.6 58.4 24 -5.6 21.8
23:45 1022 30.18 851 25.13 14.4 57.9 25 -5.5 22.1
23:50 1022 30.18 851 25.13 13.9 57.1 27 -4.9 23.1
23:55 1022 30.18 851 25.13 13.2 55.7 28 -4.8 23.3
24:00 1022 30.18 851 25.13 12.4 54.3 30 -4.5 23.8